EW1577 Weather Reports


Display with metric or nautical units.
time (UTC)temp
F
wind
direction
speed
MPH
gust
MPH
rain 1hr
in
rain 24hr
in
rain mn
in
humidity
%
barometer
mb
20180523052835 62 180 0.0 0.0 0.00 0.00 0.00 98 1016.5
20180523052329 62 90 0.0 0.0 0.00 0.00 0.00 98 1016.5
20180523051819 63 45 0.0 1.0 0.00 0.00 0.00 98 1016.9
20180523051319 63 45 0.0 2.0 0.00 0.00 0.00 98 1016.5
20180523050817 63 45 1.0 2.0 0.00 0.00 0.00 98 1016.2
20180523050313 63 270 0.0 2.0 0.00 0.00 0.00 98 1016.2
20180523045813 63 338 1.0 2.0 0.00 0.00 0.00 98 1016.2
20180523045311 64 68 0.0 3.0 0.00 0.00 0.00 98 1016.5
20180523044813 64 23 1.0 5.0 0.00 0.00 0.00 98 1016.5
20180523044310 64 338 1.0 5.0 0.00 0.00 0.00 98 1016.5
20180523043809 64 113 0.0 2.0 0.00 0.00 0.00 98 1016.2
20180523043309 64 338 1.0 2.0 0.00 0.00 0.00 98 1016.2
20180523042802 65 293 1.0 3.0 0.00 0.00 0.00 98 1016.2
20180523042300 65 293 1.0 3.0 0.00 0.00 0.00 98 1016.5
20180523041759 65 338 1.0 3.0 0.00 0.00 0.00 98 1016.2
20180523041255 65 248 2.0 3.0 0.00 0.00 0.00 98 1016.5
20180523040751 65 338 2.0 4.0 0.00 0.00 0.00 98 1015.8
20180523040253 65 0 2.0 4.0 0.00 0.00 0.00 98 1016.5
20180523035246 66 270 2.0 0.0 0.00 0.00 0.46 98 1016.2
20180523034230 66 315 2.0 4.0 0.00 0.05 0.46 98 1016.2
20180523033723 66 0 2.0 6.0 0.00 0.05 0.46 98 1015.5
20180523033211 66 270 2.0 6.0 0.00 0.05 0.46 98 1015.5
20180523032706 66 68 3.0 6.0 0.00 0.05 0.46 98 1016.2
20180523032203 67 293 3.0 6.0 0.00 0.05 0.46 98 1016.2
20180523031723 66 45 2.0 4.0 0.00 0.05 0.46 98 1015.5
20180523031159 66 0 2.0 6.0 0.00 0.05 0.46 98 1016.2
20180523030659 67 315 3.0 7.0 0.00 0.05 0.46 98 1015.5
20180523030155 67 23 4.0 7.0 0.00 0.05 0.46 98 1015.8
20180523025657 67 45 2.0 4.0 0.00 0.05 0.46 98 1015.5
20180523025156 67 23 2.0 3.0 0.00 0.05 0.46 98 1015.1
20180523024654 67 68 2.0 4.0 0.00 0.05 0.46 98 1015.1
20180523024153 67 45 2.0 4.0 0.00 0.05 0.46 98 1015.5
20180523023653 67 203 1.0 3.0 0.00 0.05 0.46 98 1015.1
20180523023153 66 68 1.0 3.0 0.00 0.05 0.46 98 1015.1
20180523022647 66 45 0.0 1.0 0.00 0.05 0.46 98 1015.1
20180523022151 67 248 0.0 2.0 0.00 0.05 0.46 98 1015.1
20180523021646 67 315 0.0 2.0 0.00 0.05 0.46 98 1015.1
20180523021144 66 113 0.0 1.0 0.00 0.05 0.46 98 1014.4
20180523020631 66 45 0.0 1.0 0.00 0.05 0.46 98 1015.1
20180523020151 66 45 0.0 0.0 0.00 0.05 0.46 98 1014.4
20180523015621 66 0 0.0 0.0 0.00 0.05 0.46 98 1014.4
20180523015114 66 270 0.0 0.0 0.00 0.05 0.46 98 1014.4
20180523014604 66 158 0.0 0.0 0.00 0.05 0.46 98 1014.4
20180523014049 67 90 0.0 0.0 0.00 0.05 0.46 98 1014.0
20180523013554 67 90 0.0 0.0 0.00 0.05 0.46 98 1014.0
20180523013048 67 90 0.0 0.0 0.00 0.05 0.46 98 1013.7
20180523012541 67 90 0.0 0.0 0.00 0.05 0.46 98 1014.7
20180523012038 67 90 0.0 0.0 0.00 0.05 0.46 98 1013.7
20180523011545 68 90 0.0 0.0 0.00 0.05 0.46 98 1014.0
20180523011033 68 23 0.0 0.0 0.00 0.05 0.46 98 1013.7
20180523010532 68 90 0.0 0.0 0.00 0.05 0.46 98 1014.0
20180523010038 69 90 0.0 0.0 0.00 0.05 0.46 98 1013.7
20180523005520 69 90 0.0 0.0 0.00 0.05 0.46 98 1013.7
20180523005014 70 90 0.0 0.0 0.00 0.05 0.46 98 1013.7
20180523004551 70 158 0.0 1.0 0.00 0.05 0.46 98 1013.7
20180523004005 70 158 0.0 1.0 0.05 0.05 0.46 98 1013.7
20180523003449 71 90 0.0 3.0 0.05 0.05 0.46 98 1013.7
20180523002945 71 315 1.0 3.0 0.05 0.05 0.46 98 1014.0
20180523002435 71 225 0.0 2.0 0.05 0.05 0.46 98 1013.7
20180523001935 71 293 0.0 1.0 0.05 0.05 0.46 98 1014.0
20180523001431 72 180 0.0 1.0 0.05 0.05 0.46 98 1013.7
20180523000932 71 113 0.0 2.0 0.05 0.05 0.46 98 1013.7
20180523000427 71 113 0.0 2.0 0.05 0.05 0.46 98 1014.4
20180522235921 71 293 0.0 6.0 0.05 0.05 0.46 98 1013.7
20180522235420 71 135 2.0 6.0 0.05 0.05 0.46 98 1014.0
20180522234924 71 225 2.0 7.0 0.05 0.05 0.46 98 1013.4
20180522234421 73 315 4.0 7.0 0.03 0.03 0.44 93 1013.4
20180522233920 74 0 3.0 6.0 0.00 0.00 0.41 90 1013.0
20180522233422 74 315 3.0 6.0 0.00 0.00 0.41 88 1013.4
20180522232921 74 0 3.0 9.0 0.00 0.00 0.41 88 1013.0
20180522232415 74 0 4.0 9.0 0.00 0.00 0.41 88 1013.4
20180522231907 75 45 6.0 12.0 0.00 0.00 0.41 86 1013.4
20180522231414 76 338 6.0 12.0 0.00 0.00 0.41 86 1013.7
20180522230908 78 293 6.0 9.0 0.00 0.00 0.41 81 1013.4
20180522230407 81 248 3.0 4.0 0.00 0.00 0.41 78 1013.0
20180522225905 81 90 2.0 5.0 0.00 0.00 0.41 79 1013.0
20180522225407 80 293 3.0 5.0 0.00 0.00 0.41 79 1013.0
20180522224900 82 180 2.0 4.0 0.00 0.00 0.41 78 1012.7
20180522224403 80 225 2.0 5.0 0.00 0.00 0.41 80 1013.0
20180522223902 80 0 3.0 7.0 0.00 0.00 0.41 80 1012.4
20180522223357 80 248 4.0 7.0 0.00 0.00 0.41 80 1012.7
20180522222853 80 248 2.0 6.0 0.00 0.00 0.41 80 1012.7
20180522222353 79 225 3.0 6.0 0.00 0.00 0.41 81 1012.7
20180522221854 79 293 2.0 5.0 0.00 0.00 0.41 83 1013.4
20180522221350 79 225 2.0 5.0 0.00 0.00 0.41 85 1013.0
20180522220846 80 225 2.0 5.0 0.00 0.00 0.41 83 1013.7
20180522220346 81 158 2.0 4.0 0.00 0.00 0.41 83 1013.7
20180522215845 80 203 2.0 4.0 0.00 0.00 0.41 83 1013.0
20180522215339 78 135 1.0 4.0 0.00 0.00 0.41 88 1013.0
20180522214834 78 90 1.0 4.0 0.00 0.00 0.41 86 1013.4
20180522214330 0 0.0 0.0 0.00 0.00 0.41
20180522114054 66 180 1.0 4.0 0.00 0.10 0.41 98 1016.5
20180522113551 66 90 2.0 4.0 0.00 0.10 0.41 98 1016.5
20180522113050 66 293 1.0 4.0 0.00 0.10 0.41 98 1016.5
20180522112550 66 135 1.0 3.0 0.00 0.10 0.41 98 1016.2
20180522112050 65 135 1.0 3.0 0.00 0.10 0.41 98 1015.8
20180522111538 65 113 0.0 4.0 0.00 0.10 0.41 98 1016.2
20180522111032 65 135 1.0 4.0 0.00 0.10 0.41 98 1016.2
20180522110530 65 203 0.0 1.0 0.00 0.10 0.41 98 1016.2
20180522110035 65 158 0.0 2.0 0.00 0.10 0.41 98 1016.5
20180522105528 65 23 1.0 2.0 0.00 0.10 0.41 98 1015.8
20180522105025 65 225 0.0 1.0 0.00 0.10 0.41 98 1016.2
20180522104518 65 113 0.0 1.0 0.00 0.10 0.41 98 1015.8
20180522104012 65 203 0.0 4.0 0.00 0.10 0.41 98 1015.8
20180522103504 65 158 1.0 4.0 0.00 0.10 0.41 98 1015.8
20180522103001 65 225 2.0 3.0 0.00 0.10 0.41 98 1016.2
20180522102501 65 248 1.0 2.0 0.00 0.10 0.41 98 1016.9
20180522102002 65 113 1.0 2.0 0.00 0.10 0.41 98 1015.8
20180522101453 65 225 1.0 2.0 0.00 0.10 0.41 98 1016.5
20180522100945 65 248 1.0 2.0 0.00 0.10 0.41 98 1016.2
20180522100444 65 180 0.0 0.0 0.00 0.10 0.41 98 1016.2
20180522095941 65 225 0.0 0.0 0.00 0.10 0.41 98 1016.2
20180522095445 65 203 0.0 0.0 0.00 0.10 0.41 98 1016.5
20180522094940 65 248 0.0 0.0 0.00 0.10 0.41 98 1015.8
20180522094441 65 225 0.0 0.0 0.01 0.10 0.41 98 1016.5
20180522093937 65 203 0.0 0.0 0.01 0.10 0.41 98 1015.5
20180522093440 65 68 0.0 0.0 0.01 0.10 0.41 98 1015.5
20180522092936 65 45 0.0 3.0 0.01 0.10 0.41 98 1015.8
20180522092435 65 248 1.0 3.0 0.01 0.10 0.41 98 1015.5
20180522091928 65 225 1.0 3.0 0.01 0.10 0.41 98 1015.5
20180522091424 65 158 1.0 3.0 0.01 0.10 0.41 98 1015.1
20180522090918 65 90 1.0 3.0 0.01 0.10 0.41 98 1015.1
20180522090416 65 45 2.0 3.0 0.01 0.10 0.41 98 1015.5
20180522085916 65 90 1.0 3.0 0.01 0.10 0.41 98 1015.8
20180522085416 65 68 0.0 3.0 0.01 0.10 0.41 98 1015.8
20180522084908 65 45 2.0 3.0 0.01 0.10 0.41 98 1015.5
20180522084408 65 68 1.0 2.0 0.00 0.09 0.40 98 1015.5
20180522083905 65 68 0.0 2.0 0.00 0.09 0.40 98 1016.5
20180522083408 65 135 2.0 4.0 0.00 0.09 0.40 98 1015.8
20180522082904 65 135 2.0 5.0 0.00 0.09 0.40 98 1015.8
20180522082413 65 45 1.0 5.0 0.00 0.09 0.40 98 1016.2
20180522081903 65 90 1.0 4.0 0.00 0.09 0.40 98 1015.8
20180522081355 65 90 0.0 1.0 0.00 0.09 0.40 98 1016.2
20180522080850 65 113 1.0 5.0 0.00 0.09 0.40 98 1016.2
20180522080349 65 158 2.0 5.0 0.00 0.09 0.40 98 1016.2
20180522075845 65 180 1.0 4.0 0.00 0.09 0.40 98 1016.2
20180522075346 65 45 1.0 3.0 0.00 0.09 0.40 98 1015.8
20180522074843 64 113 1.0 3.0 0.00 0.09 0.40 98 1015.8
20180522074343 64 90 1.0 3.0 0.00 0.09 0.40 98 1015.8
20180522073842 64 293 1.0 4.0 0.00 0.09 0.40 98 1016.5
20180522073334 64 45 2.0 4.0 0.00 0.09 0.40 98 1015.8
20180522072830 64 158 2.0 4.0 0.00 0.09 0.40 98 1016.2
20180522072332 64 90 2.0 4.0 0.00 0.09 0.40 98 1015.5
20180522071825 64 90 2.0 4.0 0.00 0.09 0.40 98 1016.2
20180522071323 64 90 2.0 5.0 0.00 0.09 0.40 98 1015.8
20180522070823 64 68 2.0 5.0 0.00 0.09 0.40 98 1016.2
20180522070315 64 135 2.0 4.0 0.00 0.09 0.40 98 1015.8
20180522065804 64 68 2.0 3.0 0.00 0.09 0.40 98 1015.8
20180522065306 64 90 2.0 3.0 0.00 0.09 0.40 98 1016.2
20180522064758 64 113 2.0 3.0 0.01 0.09 0.40 98 1016.2
20180522064252 64 68 2.0 3.0 0.02 0.09 0.40 98 1016.5
20180522063742 64 68 1.0 3.0 0.03 0.09 0.40 98 1016.2
20180522063243 64 113 2.0 3.0 0.04 0.09 0.40 98 1016.5
20180522062739 64 45 2.0 4.0 0.04 0.09 0.40 98 1016.9
20180522062236 64 90 2.0 4.0 0.05 0.09 0.40 98 1016.9
20180522061735 64 68 1.0 3.0 0.07 0.09 0.40 98 1016.5
20180522061235 64 90 1.0 2.0 0.09 0.09 0.40 98 1017.5
20180522060737 64 68 0.0 2.0 0.09 0.09 0.40 98 1016.5
20180522060234 64 45 0.0 3.0 0.09 0.09 0.40 98 1017.5
20180522055735 64 113 1.0 3.0 0.09 0.09 0.40 98 1017.2
20180522055233 64 90 0.0 0.0 0.08 0.08 0.40 98 1017.2
20180522054723 64 45 0.0 1.0 0.08 0.08 0.39 98 1016.9
20180522054224 64 158 0.0 2.0 0.07 0.07 0.38 98 1017.9
20180522053727 64 180 1.0 3.0 0.06 0.06 0.37 98 1017.2